98VA weather

CLOSED Glascock Airport
Arcola, Virginia, United States

Public forecast

Using degrees Fahrenheit for public forecast. Weather courtesy of forecast.io.

METAR (pilot weather report)

Closest report is Washington Dulles International Airport, 4.0 nm (7.5 km) E. Retrieved 2019/05/27 05:52 UTC (44 minutes ago):

KIAD 270552Z 30006KT 10SM BKN130 OVC170 23/17 A2992 RMK AO2 SLP129 T02280167 10261 20228 58011

TAF (pilot weather forecast)

Closest forecast is Washington Dulles International Airport, 4.0 nm (7.5 km) E. Retrieved 2019/05/27 06:48 UTC (0 seconds ago):

TAF KIAD 270547Z 2706/2812 34004KT P6SM SCT020 BKN200 FM272100 36005KT P6SM FEW045 SCT200 FM280500 17004KT P6SM SCT025 BKN120